Time;durP1;ratioP1;P1;durP2;ratioP2;P2;SDS_P1;SDS_P2;PMS_P1;PMS_P2;Temp;Humidity;BMP_temperature;BMP_pressure;BME280_temperature;BME280_humidity;BME280_pressure;Samples;Min_cycle;Max_cycle;Signal;HPM_P1;HPM_P2
2022/07/08 00:02:20;;;;;;;5.00;2.10;;;;;;;;;;102347;1335;22601;-28
2022/07/08 00:04:49;;;;;;;2.30;2.00;;;;;;;;;;102345;1335;22752;-24
2022/07/08 00:07:18;;;;;;;2.80;2.30;;;;;;;;;;102312;1335;22633;-28
2022/07/08 00:09:46;;;;;;;2.60;2.40;;;;;;;;;;102278;1335;22584;-25
2022/07/08 00:12:15;;;;;;;5.70;2.90;;;;;;;;;;102348;1336;22600;-28
2022/07/08 00:14:44;;;;;;;1.70;1.60;;;;;;;;;;102248;1335;22892;-28
2022/07/08 00:17:13;;;;;;;2.20;2.10;;;;;;;;;;102404;1335;22604;-27
2022/07/08 00:19:42;;;;;;;2.90;2.60;;;;;;;;;;102320;1335;22587;-28
2022/07/08 00:22:11;;;;;;;2.50;2.30;;;;;;;;;;102376;1329;22578;-24
2022/07/08 00:24:40;;;;;;;2.20;2.00;;;;;;;;;;102392;1334;22631;-28
2022/07/08 00:27:09;;;;;;;2.80;2.20;;;;;;;;;;102331;1335;22892;-28
2022/07/08 00:29:37;;;;;;;9.00;2.50;;;;;;;;;;102412;1335;22585;-27
2022/07/08 00:32:06;;;;;;;2.40;2.10;;;;;;;;;;102279;1335;22597;-24
2022/07/08 00:34:35;;;;;;;3.60;2.90;;;;;;;;;;102293;1335;22593;-24
2022/07/08 00:37:04;;;;;;;6.80;2.90;;;;;;;;;;102359;1335;22612;-25
2022/07/08 00:39:33;;;;;;;3.00;2.70;;;;;;;;;;102373;1335;22590;-29
2022/07/08 00:42:02;;;;;;;3.10;2.60;;;;;;;;;;102322;1334;22609;-25
2022/07/08 00:44:31;;;;;;;7.70;4.20;;;;;;;;;;102383;1334;22596;-28
2022/07/08 00:46:59;;;;;;;7.40;4.30;;;;;;;;;;102238;1334;22616;-28
2022/07/08 00:49:28;;;;;;;9.80;3.90;;;;;;;;;;102265;1336;22610;-28
2022/07/08 00:51:58;;;;;;;4.30;3.40;;;;;;;;;;102391;1335;22718;-29
2022/07/08 00:54:27;;;;;;;5.30;3.10;;;;;;;;;;102371;1329;22575;-24
2022/07/08 00:56:56;;;;;;;5.00;3.40;;;;;;;;;;102319;1334;22552;-28
2022/07/08 00:59:24;;;;;;;4.00;3.60;;;;;;;;;;102359;1335;22617;-27
2022/07/08 01:01:53;;;;;;;3.70;3.20;;;;;;;;;;102342;1334;22662;-27
2022/07/08 01:04:22;;;;;;;4.80;3.50;;;;;;;;;;102243;1335;22589;-23
2022/07/08 01:06:51;;;;;;;4.60;3.40;;;;;;;;;;102291;1335;22607;-24
2022/07/08 01:09:20;;;;;;;7.70;4.00;;;;;;;;;;102312;1334;22588;-28
2022/07/08 01:11:49;;;;;;;5.60;3.70;;;;;;;;;;102392;1334;22579;-27
2022/07/08 01:14:18;;;;;;;2.70;2.00;;;;;;;;;;102296;1335;22603;-28
2022/07/08 01:16:47;;;;;;;1.80;1.60;;;;;;;;;;102405;1334;22603;-24
2022/07/08 01:19:16;;;;;;;2.90;1.80;;;;;;;;;;102259;1335;22618;-28
2022/07/08 01:21:45;;;;;;;3.50;1.90;;;;;;;;;;102283;1335;22593;-28
2022/07/08 01:24:14;;;;;;;2.40;2.10;;;;;;;;;;102425;1330;22710;-24
2022/07/08 01:26:43;;;;;;;2.50;2.30;;;;;;;;;;102309;1335;22620;-28
2022/07/08 01:29:12;;;;;;;3.70;1.90;;;;;;;;;;102284;1334;22565;-28
2022/07/08 01:31:40;;;;;;;2.40;2.20;;;;;;;;;;102277;1334;22589;-26
2022/07/08 01:34:09;;;;;;;2.80;2.50;;;;;;;;;;102359;1335;22593;-28
2022/07/08 01:36:38;;;;;;;1.90;1.70;;;;;;;;;;102351;1335;22716;-24
2022/07/08 01:39:07;;;;;;;5.90;2.80;;;;;;;;;;102397;1335;22590;-29
2022/07/08 01:41:36;;;;;;;2.60;2.20;;;;;;;;;;102364;1335;22578;-28
2022/07/08 01:44:05;;;;;;;3.60;2.90;;;;;;;;;;102299;1335;22627;-30
2022/07/08 01:46:33;;;;;;;3.90;2.90;;;;;;;;;;102316;1335;22744;-28
2022/07/08 01:49:02;;;;;;;5.20;3.20;;;;;;;;;;102273;1334;22603;-28
2022/07/08 01:51:31;;;;;;;12.90;4.60;;;;;;;;;;102380;1335;22657;-25
2022/07/08 01:54:00;;;;;;;4.20;2.70;;;;;;;;;;102145;1335;22587;-29
2022/07/08 01:56:29;;;;;;;3.60;2.60;;;;;;;;;;102292;1335;22597;-25
2022/07/08 01:58:58;;;;;;;4.70;2.40;;;;;;;;;;102254;1335;22584;-24
2022/07/08 02:01:26;;;;;;;2.90;2.60;;;;;;;;;;102292;1335;22572;-25
2022/07/08 02:03:55;;;;;;;2.80;2.40;;;;;;;;;;102307;1335;22601;-27
2022/07/08 02:06:24;;;;;;;3.30;1.90;;;;;;;;;;102291;1335;22589;-28
2022/07/08 02:08:53;;;;;;;3.30;2.20;;;;;;;;;;102155;1335;22711;-25
2022/07/08 02:13:54;;;;;;;2.10;1.90;;;;;;;;;;102348;1334;22598;-26
2022/07/08 02:16:23;;;;;;;2.00;1.80;;;;;;;;;;102411;1335;22615;-24
2022/07/08 02:18:52;;;;;;;3.10;1.80;;;;;;;;;;102422;1335;22723;-28
2022/07/08 02:21:20;;;;;;;2.70;1.90;;;;;;;;;;102285;1335;22596;-28
2022/07/08 02:23:50;;;;;;;1.90;1.40;;;;;;;;;;102216;1335;22602;-25
2022/07/08 02:26:19;;;;;;;2.40;1.70;;;;;;;;;;102330;1335;22579;-25
2022/07/08 02:28:48;;;;;;;2.00;1.80;;;;;;;;;;102256;1335;22596;-30
2022/07/08 02:31:16;;;;;;;8.20;2.20;;;;;;;;;;102344;1335;22602;-28
2022/07/08 02:33:45;;;;;;;4.10;2.10;;;;;;;;;;102301;1335;22580;-23
2022/07/08 02:36:14;;;;;;;2.60;2.20;;;;;;;;;;102369;1335;22689;-28
2022/07/08 02:38:43;;;;;;;8.10;2.70;;;;;;;;;;102238;1335;22603;-24
2022/07/08 02:41:12;;;;;;;2.50;2.30;;;;;;;;;;102298;1335;22604;-24
2022/07/08 02:43:40;;;;;;;2.50;2.20;;;;;;;;;;102288;1335;22703;-25
2022/07/08 02:46:09;;;;;;;2.90;1.60;;;;;;;;;;102266;1327;22648;-25
2022/07/08 02:48:38;;;;;;;5.30;2.10;;;;;;;;;;102346;1335;22614;-29
2022/07/08 02:51:07;;;;;;;2.30;1.90;;;;;;;;;;102347;1335;22614;-28
2022/07/08 02:53:36;;;;;;;7.00;3.90;;;;;;;;;;102386;1335;22667;-26
2022/07/08 02:56:05;;;;;;;2.70;2.40;;;;;;;;;;102311;1329;22711;-28
2022/07/08 02:58:34;;;;;;;7.90;3.10;;;;;;;;;;102460;1335;22623;-29
2022/07/08 03:01:02;;;;;;;7.00;2.60;;;;;;;;;;102486;1335;22698;-30
2022/07/08 03:03:31;;;;;;;3.80;2.30;;;;;;;;;;102359;1335;22612;-24
2022/07/08 03:06:00;;;;;;;3.40;2.70;;;;;;;;;;102264;1335;22595;-24
2022/07/08 03:08:29;;;;;;;3.30;2.20;;;;;;;;;;102319;1335;22734;-29
2022/07/08 03:10:58;;;;;;;2.30;2.10;;;;;;;;;;102386;1335;22671;-28
2022/07/08 03:13:27;;;;;;;5.20;2.80;;;;;;;;;;102387;1335;22619;-23
2022/07/08 03:15:56;;;;;;;2.70;2.50;;;;;;;;;;102283;1329;22724;-28
2022/07/08 03:18:24;;;;;;;7.60;2.40;;;;;;;;;;102284;1335;22614;-28
2022/07/08 03:20:53;;;;;;;5.90;4.30;;;;;;;;;;102380;1335;22649;-28
2022/07/08 03:23:22;;;;;;;3.10;2.90;;;;;;;;;;102358;1335;22583;-28
2022/07/08 03:25:51;;;;;;;4.30;3.60;;;;;;;;;;102255;1335;22613;-24
2022/07/08 03:28:20;;;;;;;3.50;3.00;;;;;;;;;;102316;1335;22607;-24
2022/07/08 03:30:48;;;;;;;4.40;4.00;;;;;;;;;;102394;1335;22593;-25
2022/07/08 03:33:17;;;;;;;9.50;3.90;;;;;;;;;;102280;1335;22641;-29
2022/07/08 03:35:46;;;;;;;4.10;3.20;;;;;;;;;;102294;1335;22587;-25
2022/07/08 03:38:15;;;;;;;3.70;3.30;;;;;;;;;;102324;1335;22623;-28
2022/07/08 03:43:16;;;;;;;4.20;3.80;;;;;;;;;;102299;1335;22594;-24
2022/07/08 03:45:45;;;;;;;4.90;4.40;;;;;;;;;;102363;1335;22607;-26
2022/07/08 03:48:14;;;;;;;4.30;3.70;;;;;;;;;;102372;1335;22590;-27
2022/07/08 03:50:43;;;;;;;4.30;3.70;;;;;;;;;;102320;1335;22590;-23
2022/07/08 03:53:12;;;;;;;7.00;3.80;;;;;;;;;;102328;1335;22601;-28
2022/07/08 03:55:41;;;;;;;4.80;3.60;;;;;;;;;;102382;1335;22579;-25
2022/07/08 03:58:09;;;;;;;4.90;4.30;;;;;;;;;;102380;1335;22599;-29
2022/07/08 04:00:38;;;;;;;4.40;3.90;;;;;;;;;;102287;1335;22617;-28
2022/07/08 04:03:07;;;;;;;3.40;3.10;;;;;;;;;;102304;1329;22597;-28
2022/07/08 04:05:36;;;;;;;6.50;3.40;;;;;;;;;;102267;1335;22649;-24
2022/07/08 04:08:05;;;;;;;3.40;3.20;;;;;;;;;;102312;1335;22589;-29
2022/07/08 04:10:33;;;;;;;6.00;3.60;;;;;;;;;;102376;1335;22750;-25
2022/07/08 04:13:02;;;;;;;5.00;4.50;;;;;;;;;;102329;1335;22641;-28
2022/07/08 04:15:31;;;;;;;6.10;3.10;;;;;;;;;;102278;1329;22597;-27
2022/07/08 04:18:00;;;;;;;3.90;3.60;;;;;;;;;;102485;1335;22601;-25
2022/07/08 04:20:29;;;;;;;4.20;3.50;;;;;;;;;;102307;1336;22610;-23
2022/07/08 04:22:57;;;;;;;14.90;4.00;;;;;;;;;;102292;1335;22592;-25
2022/07/08 04:25:26;;;;;;;4.50;4.10;;;;;;;;;;102486;1335;22648;-28
2022/07/08 04:27:55;;;;;;;4.30;3.80;;;;;;;;;;102395;1333;22603;-28
2022/07/08 04:30:25;;;;;;;4.40;3.90;;;;;;;;;;102330;1335;22591;-30
2022/07/08 04:32:53;;;;;;;3.70;3.20;;;;;;;;;;102342;1335;22602;-29
2022/07/08 04:35:22;;;;;;;4.40;4.10;;;;;;;;;;102380;1335;22625;-29
2022/07/08 04:37:51;;;;;;;6.00;4.50;;;;;;;;;;102339;1327;22595;-24
2022/07/08 04:40:20;;;;;;;4.70;4.20;;;;;;;;;;102344;1336;22660;-28
2022/07/08 04:42:49;;;;;;;5.40;4.90;;;;;;;;;;102370;1335;22607;-26
2022/07/08 04:45:17;;;;;;;5.00;4.60;;;;;;;;;;102330;1329;22861;-29
2022/07/08 04:47:46;;;;;;;4.60;4.10;;;;;;;;;;102363;1335;22613;-24
2022/07/08 04:50:16;;;;;;;4.90;4.30;;;;;;;;;;102260;1335;22597;-25
2022/07/08 04:52:44;;;;;;;4.70;4.30;;;;;;;;;;102211;1335;22886;-28
2022/07/08 04:57:46;;;;;;;4.90;3.50;;;;;;;;;;102415;1335;22616;-29
2022/07/08 05:00:15;;;;;;;6.00;5.30;;;;;;;;;;102338;1329;22865;-26
2022/07/08 05:02:43;;;;;;;6.20;5.00;;;;;;;;;;102197;1335;22590;-30
2022/07/08 05:05:12;;;;;;;5.40;4.90;;;;;;;;;;102372;1329;22696;-29
2022/07/08 05:07:41;;;;;;;5.40;4.90;;;;;;;;;;102287;1335;22597;-28
2022/07/08 05:10:10;;;;;;;3.90;3.60;;;;;;;;;;102418;1335;22635;-29
2022/07/08 05:12:39;;;;;;;7.50;4.90;;;;;;;;;;102396;1335;22699;-28
2022/07/08 05:15:08;;;;;;;4.10;3.70;;;;;;;;;;102316;1335;22620;-24
2022/07/08 05:17:38;;;;;;;6.00;5.50;;;;;;;;;;102403;1334;24763;-25
2022/07/08 05:20:07;;;;;;;7.20;5.20;;;;;;;;;;102369;1327;22582;-28
2022/07/08 05:22:36;;;;;;;5.20;4.80;;;;;;;;;;102242;1335;22618;-28
2022/07/08 05:25:06;;;;;;;6.60;5.60;;;;;;;;;;102261;1335;22739;-24
2022/07/08 05:27:35;;;;;;;6.00;5.50;;;;;;;;;;102265;1335;22566;-31
2022/07/08 05:30:04;;;;;;;5.90;5.30;;;;;;;;;;102413;1335;22687;-30
2022/07/08 05:32:33;;;;;;;4.60;4.20;;;;;;;;;;102324;1335;22598;-28
2022/07/08 05:35:02;;;;;;;6.10;5.40;;;;;;;;;;102386;1335;22615;-25
2022/07/08 05:37:31;;;;;;;5.30;4.80;;;;;;;;;;102303;1335;22699;-25
2022/07/08 05:40:00;;;;;;;6.80;5.10;;;;;;;;;;102302;1335;22611;-25
2022/07/08 05:42:29;;;;;;;6.00;4.90;;;;;;;;;;102346;1334;22811;-28
2022/07/08 05:44:58;;;;;;;7.30;5.80;;;;;;;;;;102341;1329;22725;-29
2022/07/08 05:47:27;;;;;;;5.90;5.50;;;;;;;;;;102346;1335;22624;-24
2022/07/08 05:49:55;;;;;;;5.40;4.90;;;;;;;;;;102329;1334;22621;-25
2022/07/08 05:52:24;;;;;;;5.40;4.90;;;;;;;;;;102296;1335;22681;-24
2022/07/08 05:54:53;;;;;;;5.10;4.70;;;;;;;;;;102253;1334;22604;-28
2022/07/08 05:57:22;;;;;;;4.90;4.40;;;;;;;;;;102246;1335;22610;-24
2022/07/08 05:59:51;;;;;;;6.50;6.00;;;;;;;;;;102303;1329;22589;-28
2022/07/08 06:02:20;;;;;;;5.30;4.70;;;;;;;;;;102396;1335;22611;-28
2022/07/08 06:04:49;;;;;;;5.20;4.70;;;;;;;;;;102295;1335;22605;-28
2022/07/08 06:07:18;;;;;;;7.40;5.00;;;;;;;;;;102414;1335;22613;-26
2022/07/08 06:09:47;;;;;;;4.40;3.80;;;;;;;;;;102310;1335;22616;-24
2022/07/08 06:12:16;;;;;;;7.50;5.80;;;;;;;;;;102344;1334;22736;-24
2022/07/08 06:14:44;;;;;;;5.60;5.20;;;;;;;;;;102445;1332;22596;-28
2022/07/08 06:17:13;;;;;;;6.20;5.60;;;;;;;;;;102185;1335;289046;-29
2022/07/08 06:19:42;;;;;;;5.90;5.40;;;;;;;;;;102412;1335;22582;-29
2022/07/08 06:22:11;;;;;;;6.40;5.70;;;;;;;;;;102359;1334;22895;-24
2022/07/08 06:24:40;;;;;;;6.30;5.40;;;;;;;;;;102366;1335;22612;-25
2022/07/08 06:27:09;;;;;;;7.70;5.40;;;;;;;;;;102357;1334;22736;-24
2022/07/08 06:29:38;;;;;;;5.70;5.20;;;;;;;;;;102338;1329;22655;-29
2022/07/08 06:32:07;;;;;;;6.50;6.00;;;;;;;;;;102376;1335;22729;-28
2022/07/08 06:34:36;;;;;;;5.70;5.20;;;;;;;;;;102217;1335;22725;-28
2022/07/08 06:37:05;;;;;;;11.60;5.90;;;;;;;;;;102300;1335;22708;-25
2022/07/08 06:39:34;;;;;;;5.50;4.80;;;;;;;;;;102332;1335;22613;-31
2022/07/08 06:42:03;;;;;;;5.60;5.10;;;;;;;;;;102354;1334;22618;-30
2022/07/08 06:44:31;;;;;;;5.30;4.50;;;;;;;;;;102400;1329;22740;-25
2022/07/08 06:47:00;;;;;;;6.20;4.90;;;;;;;;;;102292;1335;22602;-25
2022/07/08 06:49:29;;;;;;;4.70;4.30;;;;;;;;;;102430;1334;22601;-24
2022/07/08 06:51:58;;;;;;;5.70;5.20;;;;;;;;;;102424;1334;22595;-23
2022/07/08 06:56:59;;;;;;;6.00;5.50;;;;;;;;;;102430;1335;22631;-28
2022/07/08 06:59:28;;;;;;;6.70;6.20;;;;;;;;;;102297;1335;22597;-31
2022/07/08 07:01:59;;;;;;;4.70;4.30;;;;;;;;;;102256;1335;22591;-28
2022/07/08 07:04:28;;;;;;;6.40;5.80;;;;;;;;;;102377;1335;22577;-29
2022/07/08 07:06:57;;;;;;;6.80;5.20;;;;;;;;;;102356;1335;22714;-25
2022/07/08 07:09:26;;;;;;;6.60;5.40;;;;;;;;;;102321;1327;22786;-29
2022/07/08 07:11:55;;;;;;;5.70;5.20;;;;;;;;;;102331;1335;22624;-28
2022/07/08 07:14:23;;;;;;;4.10;3.80;;;;;;;;;;102369;1334;22718;-24
2022/07/08 07:16:52;;;;;;;7.30;3.20;;;;;;;;;;102274;1335;22605;-25
2022/07/08 07:19:21;;;;;;;3.60;3.20;;;;;;;;;;102292;1335;22611;-25
2022/07/08 07:21:50;;;;;;;4.30;3.50;;;;;;;;;;102430;1335;22602;-25
2022/07/08 07:24:19;;;;;;;3.10;2.80;;;;;;;;;;102398;1335;22584;-30
2022/07/08 07:26:48;;;;;;;3.10;2.80;;;;;;;;;;102360;1334;22615;-30
2022/07/08 07:29:18;;;;;;;2.50;2.30;;;;;;;;;;102307;1335;22637;-25
2022/07/08 07:31:47;;;;;;;2.60;2.40;;;;;;;;;;102345;1335;22600;-25
2022/07/08 07:34:16;;;;;;;3.00;2.70;;;;;;;;;;102301;1327;22624;-24
2022/07/08 07:36:44;;;;;;;1.70;1.60;;;;;;;;;;102366;1330;22696;-25
2022/07/08 07:39:13;;;;;;;2.60;2.40;;;;;;;;;;102266;1335;23066;-24
2022/07/08 07:41:42;;;;;;;2.90;2.00;;;;;;;;;;102340;1335;22607;-29
2022/07/08 07:44:11;;;;;;;3.00;2.50;;;;;;;;;;102329;1329;22681;-29
2022/07/08 07:46:40;;;;;;;2.40;1.70;;;;;;;;;;102302;1335;22607;-25
2022/07/08 07:49:09;;;;;;;3.50;2.80;;;;;;;;;;102299;1335;22709;-24
2022/07/08 07:51:37;;;;;;;1.70;1.40;;;;;;;;;;102408;1329;22609;-29
2022/07/08 07:54:06;;;;;;;2.40;1.80;;;;;;;;;;102260;1335;22616;-29
2022/07/08 07:56:35;;;;;;;3.00;2.00;;;;;;;;;;102377;1331;22644;-30
2022/07/08 07:59:04;;;;;;;2.00;1.60;;;;;;;;;;102365;1335;22599;-25
2022/07/08 08:01:33;;;;;;;2.20;1.80;;;;;;;;;;101592;1335;1005617;-24
2022/07/08 08:04:02;;;;;;;1.50;1.30;;;;;;;;;;102371;1335;22705;-25
2022/07/08 08:06:30;;;;;;;2.20;1.40;;;;;;;;;;102311;1335;22630;-29
2022/07/08 08:08:59;;;;;;;1.20;0.90;;;;;;;;;;102316;1335;22604;-31
2022/07/08 08:11:28;;;;;;;1.50;1.40;;;;;;;;;;102415;1335;22590;-26
2022/07/08 08:13:57;;;;;;;2.00;1.80;;;;;;;;;;102301;1335;22599;-26
2022/07/08 08:16:26;;;;;;;1.40;0.90;;;;;;;;;;102287;1335;22600;-29
2022/07/08 08:18:55;;;;;;;2.70;1.20;;;;;;;;;;102432;1335;22620;-27
2022/07/08 08:21:24;;;;;;;1.40;0.90;;;;;;;;;;102372;1335;22660;-24
2022/07/08 08:23:53;;;;;;;1.30;1.20;;;;;;;;;;102317;1335;22592;-29
2022/07/08 08:26:22;;;;;;;4.10;1.20;;;;;;;;;;102407;1335;22686;-29
2022/07/08 08:28:51;;;;;;;1.20;1.00;;;;;;;;;;102283;1335;22594;-30
2022/07/08 08:31:20;;;;;;;0.80;0.70;;;;;;;;;;102371;1335;23079;-31
2022/07/08 08:33:49;;;;;;;2.10;0.90;;;;;;;;;;102295;1335;22696;-27
2022/07/08 08:36:27;;;;;;;1.20;1.00;;;;;;;;;;102329;1335;22610;-30
2022/07/08 08:38:56;;;;;;;1.50;0.80;;;;;;;;;;102356;1335;22588;-29
2022/07/08 08:41:25;;;;;;;1.10;0.80;;;;;;;;;;102338;1332;22683;-25
2022/07/08 08:43:54;;;;;;;1.90;1.00;;;;;;;;;;102378;1329;22700;-25
2022/07/08 08:46:23;;;;;;;1.70;1.10;;;;;;;;;;102342;1335;22619;-27
2022/07/08 08:48:55;;;;;;;2.90;1.30;;;;;;;;;;102301;1335;22711;-31
2022/07/08 08:51:24;;;;;;;2.00;1.50;;;;;;;;;;102357;1335;24434;-28
2022/07/08 08:53:54;;;;;;;1.80;0.70;;;;;;;;;;102211;1329;22607;-25
2022/07/08 08:56:23;;;;;;;6.80;2.40;;;;;;;;;;102353;1331;22707;-25
2022/07/08 08:58:52;;;;;;;1.80;0.90;;;;;;;;;;102320;1329;22895;-24
2022/07/08 09:01:22;;;;;;;0.50;0.50;;;;;;;;;;102348;1329;22657;-29
2022/07/08 09:03:50;;;;;;;1.00;1.00;;;;;;;;;;102335;1335;22686;-26
2022/07/08 09:06:19;;;;;;;3.20;0.60;;;;;;;;;;102318;1335;22620;-29
2022/07/08 09:08:48;;;;;;;1.10;0.90;;;;;;;;;;102339;1335;22587;-24
2022/07/08 09:11:18;;;;;;;1.20;0.90;;;;;;;;;;102334;1335;22589;-25
2022/07/08 09:14:06;;;;;;;1.30;0.70;;;;;;;;;;102367;1335;22594;-26
2022/07/08 09:16:35;;;;;;;1.50;0.70;;;;;;;;;;102259;1335;22656;-29
2022/07/08 09:19:07;;;;;;;2.00;0.70;;;;;;;;;;102347;1334;22601;-27
2022/07/08 09:21:36;;;;;;;1.30;0.70;;;;;;;;;;102390;1335;22640;-31
2022/07/08 09:24:09;;;;;;;0.40;0.40;;;;;;;;;;102277;1335;22613;-27
2022/07/08 09:26:38;;;;;;;1.00;0.60;;;;;;;;;;102384;1335;22690;-24
2022/07/08 09:29:07;;;;;;;3.40;1.20;;;;;;;;;;102398;1334;22662;-31
2022/07/08 09:31:36;;;;;;;9.60;2.60;;;;;;;;;;102375;1335;22603;-29
2022/07/08 09:34:09;;;;;;;5.40;0.90;;;;;;;;;;102290;1335;22747;-25
2022/07/08 09:36:41;;;;;;;2.60;1.00;;;;;;;;;;102292;1335;22611;-25
2022/07/08 09:39:15;;;;;;;3.20;1.10;;;;;;;;;;102371;1335;22588;-30
2022/07/08 09:41:45;;;;;;;3.20;1.20;;;;;;;;;;102412;1335;22667;-28
2022/07/08 09:44:15;;;;;;;5.90;1.60;;;;;;;;;;102295;1335;22718;-25
2022/07/08 09:46:44;;;;;;;1.50;1.00;;;;;;;;;;102388;1327;22586;-27
2022/07/08 09:49:17;;;;;;;2.00;1.10;;;;;;;;;;102337;1332;22590;-25
2022/07/08 09:51:46;;;;;;;1.50;0.80;;;;;;;;;;102374;1335;22711;-26
2022/07/08 09:54:15;;;;;;;2.60;1.00;;;;;;;;;;102364;1335;22650;-29
2022/07/08 09:56:56;;;;;;;2.70;0.80;;;;;;;;;;102316;1335;22610;-25
2022/07/08 09:59:24;;;;;;;2.00;0.70;;;;;;;;;;102307;1335;22782;-25
2022/07/08 10:01:53;;;;;;;2.30;1.00;;;;;;;;;;102329;1335;22611;-29
2022/07/08 10:04:23;;;;;;;1.30;1.00;;;;;;;;;;102400;1335;22865;-30
2022/07/08 10:06:54;;;;;;;2.60;0.70;;;;;;;;;;102396;1335;22670;-27
2022/07/08 10:09:24;;;;;;;3.50;1.20;;;;;;;;;;102317;1335;22603;-29
2022/07/08 10:11:53;;;;;;;8.80;1.10;;;;;;;;;;102378;1335;22615;-28
2022/07/08 10:14:21;;;;;;;2.10;0.60;;;;;;;;;;102328;1329;22826;-31
2022/07/08 10:16:50;;;;;;;5.40;0.80;;;;;;;;;;102411;1334;22606;-26
2022/07/08 10:19:21;;;;;;;6.10;0.70;;;;;;;;;;102340;1327;22659;-28
2022/07/08 10:21:51;;;;;;;5.40;0.80;;;;;;;;;;102333;1335;22604;-31
2022/07/08 10:24:22;;;;;;;8.00;0.90;;;;;;;;;;102324;1334;22607;-31
2022/07/08 10:26:51;;;;;;;1.10;0.60;;;;;;;;;;102267;1335;22624;-29
2022/07/08 10:29:19;;;;;;;1.60;0.40;;;;;;;;;;102350;1335;22639;-26
2022/07/08 10:31:51;;;;;;;21.20;0.50;;;;;;;;;;102339;1333;22656;-26
2022/07/08 10:34:32;;;;;;;4.50;0.60;;;;;;;;;;102259;1335;22652;-24
2022/07/08 10:37:09;;;;;;;1.30;0.60;;;;;;;;;;102256;1332;22609;-29
2022/07/08 10:39:40;;;;;;;2.60;0.60;;;;;;;;;;102249;1329;22602;-25
2022/07/08 10:42:09;;;;;;;4.80;0.60;;;;;;;;;;102268;1335;22614;-31
2022/07/08 10:44:41;;;;;;;11.60;0.80;;;;;;;;;;102347;1335;22675;-25
2022/07/08 10:47:11;;;;;;;11.30;0.90;;;;;;;;;;102287;1335;22660;-29
2022/07/08 10:49:40;;;;;;;2.70;0.50;;;;;;;;;;102303;1334;22597;-29
2022/07/08 10:52:09;;;;;;;3.50;0.90;;;;;;;;;;102327;1335;22591;-29
2022/07/08 10:54:38;;;;;;;3.80;0.80;;;;;;;;;;102302;1335;22624;-31
2022/07/08 10:57:07;;;;;;;2.70;0.60;;;;;;;;;;102305;1335;22875;-30
2022/07/08 10:59:36;;;;;;;1.90;0.50;;;;;;;;;;102395;1335;22609;-30
2022/07/08 11:02:06;;;;;;;3.10;0.90;;;;;;;;;;102303;1335;22708;-25
2022/07/08 11:04:43;;;;;;;4.00;1.50;;;;;;;;;;102294;1335;22726;-29
2022/07/08 11:07:22;;;;;;;4.70;0.70;;;;;;;;;;102366;1335;22609;-29
2022/07/08 11:09:51;;;;;;;0.20;0.10;;;;;;;;;;102219;1335;22599;-29
2022/07/08 11:12:21;;;;;;;1.80;0.60;;;;;;;;;;102274;1335;22609;-29
2022/07/08 11:14:51;;;;;;;0.50;0.30;;;;;;;;;;102259;1335;22565;-29
2022/07/08 11:17:20;;;;;;;7.50;0.80;;;;;;;;;;102359;1334;22622;-28
2022/07/08 11:19:50;;;;;;;2.70;0.60;;;;;;;;;;102229;1335;22611;-24
2022/07/08 11:22:20;;;;;;;1.30;0.80;;;;;;;;;;102280;1335;22682;-28
2022/07/08 11:24:49;;;;;;;2.30;0.70;;;;;;;;;;102229;1330;22604;-30
2022/07/08 11:27:21;;;;;;;4.10;0.90;;;;;;;;;;102379;1335;22613;-30
2022/07/08 11:29:51;;;;;;;0.50;0.50;;;;;;;;;;102314;1335;22711;-26
2022/07/08 11:32:21;;;;;;;2.70;0.50;;;;;;;;;;102338;1335;22597;-25
2022/07/08 11:34:50;;;;;;;3.10;0.40;;;;;;;;;;102381;1335;22565;-27
2022/07/08 11:37:19;;;;;;;2.00;0.90;;;;;;;;;;102371;1335;22718;-27
2022/07/08 11:39:48;;;;;;;7.20;1.00;;;;;;;;;;102371;1335;22590;-30
2022/07/08 11:42:17;;;;;;;2.30;0.60;;;;;;;;;;102334;1335;22597;-29
2022/07/08 11:44:45;;;;;;;6.30;0.50;;;;;;;;;;102261;1336;22707;-28
2022/07/08 11:47:17;;;;;;;1.00;0.60;;;;;;;;;;102227;1335;22613;-25
2022/07/08 11:49:47;;;;;;;1.40;0.50;;;;;;;;;;102309;1335;23057;-25
2022/07/08 11:52:17;;;;;;;9.20;0.90;;;;;;;;;;102390;1335;22630;-31
2022/07/08 11:54:46;;;;;;;3.20;0.70;;;;;;;;;;102424;1336;22615;-30
2022/07/08 11:57:15;;;;;;;11.90;1.00;;;;;;;;;;102351;1335;22604;-29
2022/07/08 11:59:44;;;;;;;1.50;0.40;;;;;;;;;;102349;1336;22590;-26
2022/07/08 12:02:15;;;;;;;5.10;0.70;;;;;;;;;;102338;1335;22700;-28
2022/07/08 12:04:45;;;;;;;4.20;0.70;;;;;;;;;;102258;1335;22617;-25
2022/07/08 12:07:17;;;;;;;1.70;0.70;;;;;;;;;;102327;1336;22727;-29
2022/07/08 12:09:50;;;;;;;1.50;0.30;;;;;;;;;;102408;1334;22607;-25
2022/07/08 12:12:20;;;;;;;5.60;0.80;;;;;;;;;;102330;1335;22610;-25
2022/07/08 12:14:49;;;;;;;1.30;0.40;;;;;;;;;;102274;1329;22635;-26
2022/07/08 12:17:22;;;;;;;4.30;0.60;;;;;;;;;;102297;1335;22597;-26
2022/07/08 12:19:53;;;;;;;0.80;0.30;;;;;;;;;;102402;1335;22580;-29
2022/07/08 12:22:25;;;;;;;4.70;1.00;;;;;;;;;;102304;1335;22584;-25
2022/07/08 12:25:02;;;;;;;12.50;0.60;;;;;;;;;;102359;1335;22687;-25
2022/07/08 12:27:40;;;;;;;2.20;0.30;;;;;;;;;;102326;1335;22591;-25
2022/07/08 12:30:09;;;;;;;6.70;0.40;;;;;;;;;;102318;1335;22595;-25
2022/07/08 12:32:39;;;;;;;1.40;0.40;;;;;;;;;;102304;1335;22644;-29
2022/07/08 12:35:09;;;;;;;13.90;0.40;;;;;;;;;;102279;1335;22694;-29
2022/07/08 12:37:38;;;;;;;3.90;0.40;;;;;;;;;;102350;1335;22668;-26
2022/07/08 12:40:10;;;;;;;1.20;0.40;;;;;;;;;;102301;1335;22587;-28
2022/07/08 12:42:39;;;;;;;3.00;0.30;;;;;;;;;;102361;1335;22597;-27
2022/07/08 12:45:16;;;;;;;1.30;0.20;;;;;;;;;;102279;1335;22594;-27
2022/07/08 12:47:54;;;;;;;3.40;1.20;;;;;;;;;;102271;1335;22628;-27
2022/07/08 12:50:31;;;;;;;1.20;0.30;;;;;;;;;;102328;1336;22617;-26
2022/07/08 12:53:00;;;;;;;0.90;0.10;;;;;;;;;;102406;1335;22700;-25
2022/07/08 12:55:29;;;;;;;16.30;0.50;;;;;;;;;;102325;1335;22712;-28
2022/07/08 12:57:58;;;;;;;1.90;0.60;;;;;;;;;;102279;1335;22652;-27
2022/07/08 13:00:27;;;;;;;6.10;0.40;;;;;;;;;;102264;1335;22687;-25
2022/07/08 13:02:56;;;;;;;1.90;0.30;;;;;;;;;;102352;1335;22615;-25
2022/07/08 13:05:25;;;;;;;2.20;0.30;;;;;;;;;;102306;1335;22608;-29
2022/07/08 13:07:54;;;;;;;6.60;0.40;;;;;;;;;;102341;1335;22651;-29
2022/07/08 13:10:22;;;;;;;1.60;0.50;;;;;;;;;;102346;1335;22752;-28
2022/07/08 13:12:51;;;;;;;0.90;0.60;;;;;;;;;;102294;1329;22599;-27
2022/07/08 13:15:20;;;;;;;1.50;0.20;;;;;;;;;;102276;1335;22677;-31
2022/07/08 13:17:57;;;;;;;1.80;0.30;;;;;;;;;;102354;1335;22620;-27
2022/07/08 13:20:26;;;;;;;0.80;0.50;;;;;;;;;;102336;1335;22579;-28
2022/07/08 13:22:55;;;;;;;2.50;0.40;;;;;;;;;;102289;1335;22606;-30
2022/07/08 13:25:24;;;;;;;1.50;0.40;;;;;;;;;;102309;1335;22596;-25
2022/07/08 13:27:53;;;;;;;3.00;0.60;;;;;;;;;;102384;1335;22590;-31
2022/07/08 13:30:21;;;;;;;0.90;0.40;;;;;;;;;;102383;1329;22595;-27
2022/07/08 13:32:50;;;;;;;2.40;0.20;;;;;;;;;;102302;1333;25263;-27
2022/07/08 13:35:28;;;;;;;0.90;0.10;;;;;;;;;;102310;1335;22925;-27
2022/07/08 13:37:57;;;;;;;1.60;0.30;;;;;;;;;;102349;1334;22616;-27
2022/07/08 13:40:25;;;;;;;1.00;0.20;;;;;;;;;;102312;1334;22597;-26
2022/07/08 13:42:54;;;;;;;0.70;0.30;;;;;;;;;;102327;1335;22735;-24
2022/07/08 13:45:23;;;;;;;2.10;0.20;;;;;;;;;;102404;1329;22615;-30
2022/07/08 13:47:52;;;;;;;0.10;0.10;;;;;;;;;;102319;1329;22693;-23
2022/07/08 13:50:21;;;;;;;0.90;0.30;;;;;;;;;;102386;1335;22620;-25
2022/07/08 13:52:50;;;;;;;0.20;0.10;;;;;;;;;;102421;1331;22598;-24
2022/07/08 13:55:19;;;;;;;5.40;0.00;;;;;;;;;;102285;1335;22587;-26
2022/07/08 13:57:48;;;;;;;0.40;0.20;;;;;;;;;;102311;1335;22740;-26
2022/07/08 14:00:17;;;;;;;0.10;0.10;;;;;;;;;;102318;1329;22698;-26
2022/07/08 14:02:46;;;;;;;0.40;0.20;;;;;;;;;;102344;1335;22636;-26
2022/07/08 14:05:23;;;;;;;0.10;0.10;;;;;;;;;;102302;1335;22572;-24
2022/07/08 14:07:52;;;;;;;0.70;0.10;;;;;;;;;;102308;1336;22585;-25
2022/07/08 14:10:21;;;;;;;0.10;0.00;;;;;;;;;;102260;1335;22660;-25
2022/07/08 14:12:50;;;;;;;0.70;0.20;;;;;;;;;;102319;1335;22589;-29
2022/07/08 14:15:19;;;;;;;1.30;0.20;;;;;;;;;;102302;1335;22582;-28
2022/07/08 14:17:47;;;;;;;0.40;0.10;;;;;;;;;;102217;1335;81624;-25
2022/07/08 14:20:25;;;;;;;0.90;0.30;;;;;;;;;;102279;1335;22682;-25
2022/07/08 14:23:02;;;;;;;0.90;0.20;;;;;;;;;;102323;1335;22670;-26
2022/07/08 14:25:32;;;;;;;2.30;0.30;;;;;;;;;;102357;1335;22591;-29
2022/07/08 14:28:01;;;;;;;1.00;0.30;;;;;;;;;;102277;1335;22585;-25
2022/07/08 14:30:30;;;;;;;0.20;0.20;;;;;;;;;;102330;1335;22633;-29
2022/07/08 14:32:59;;;;;;;4.10;0.30;;;;;;;;;;102322;1335;22648;-28
2022/07/08 14:35:27;;;;;;;1.00;0.40;;;;;;;;;;102263;1335;22610;-27
2022/07/08 14:37:58;;;;;;;0.90;0.20;;;;;;;;;;102369;1335;22616;-25
2022/07/08 14:40:27;;;;;;;1.20;0.30;;;;;;;;;;102233;1335;22733;-28
2022/07/08 14:42:56;;;;;;;0.60;0.40;;;;;;;;;;102351;1335;22604;-29
2022/07/08 14:45:25;;;;;;;4.50;0.80;;;;;;;;;;102229;1335;22586;-24
2022/07/08 14:48:02;;;;;;;3.70;0.20;;;;;;;;;;102284;1335;22659;-29
2022/07/08 14:50:40;;;;;;;1.30;0.40;;;;;;;;;;102300;1335;22578;-29
2022/07/08 14:53:09;;;;;;;1.50;0.30;;;;;;;;;;102283;1334;22606;-29